sensor_id;sensor_type;location;lat;lon;timestamp;temperature;humidity
55701;DHT22;41604;43.142;20.512;2024-03-06T00:01:31;231.30;2252.80
55701;DHT22;41604;43.142;20.512;2024-03-06T00:03:57;231.20;2252.80
55701;DHT22;41604;43.142;20.512;2024-03-06T00:06:23;231.20;2252.80
55701;DHT22;41604;43.142;20.512;2024-03-06T00:08:50;256.10;2252.80
55701;DHT22;41604;43.142;20.512;2024-03-06T00:11:16;256.10;2252.80
55701;DHT22;41604;43.142;20.512;2024-03-06T00:13:42;231.20;2252.80
55701;DHT22;41604;43.142;20.512;2024-03-06T00:16:09;256.10;2252.80
55701;DHT22;41604;43.142;20.512;2024-03-06T00:18:34;256.00;2252.80
55701;DHT22;41604;43.142;20.512;2024-03-06T00:21:00;231.20;2252.80
55701;DHT22;41604;43.142;20.512;2024-03-06T00:23:26;231.20;2252.80
55701;DHT22;41604;43.142;20.512;2024-03-06T00:25:52;231.20;2252.80
55701;DHT22;41604;43.142;20.512;2024-03-06T00:28:17;231.20;2252.80
55701;DHT22;41604;43.142;20.512;2024-03-06T00:30:43;231.00;2252.80
55701;DHT22;41604;43.142;20.512;2024-03-06T00:33:09;231.00;2252.80
55701;DHT22;41604;43.142;20.512;2024-03-06T00:35:35;230.90;2252.80
55701;DHT22;41604;43.142;20.512;2024-03-06T00:38:00;231.10;2252.80
55701;DHT22;41604;43.142;20.512;2024-03-06T00:40:28;231.20;2252.80
55701;DHT22;41604;43.142;20.512;2024-03-06T00:42:57;231.20;2252.80
55701;DHT22;41604;43.142;20.512;2024-03-06T00:45:24;231.00;2252.80
55701;DHT22;41604;43.142;20.512;2024-03-06T00:47:50;230.90;2252.80
55701;DHT22;41604;43.142;20.512;2024-03-06T00:50:16;230.60;2252.80
55701;DHT22;41604;43.142;20.512;2024-03-06T00:52:43;230.80;2252.80
55701;DHT22;41604;43.142;20.512;2024-03-06T00:55:09;230.80;2252.80
55701;DHT22;41604;43.142;20.512;2024-03-06T00:57:35;230.80;2252.80
55701;DHT22;41604;43.142;20.512;2024-03-06T01:00:02;230.60;2252.80
55701;DHT22;41604;43.142;20.512;2024-03-06T01:02:37;230.50;2252.80
55701;DHT22;41604;43.142;20.512;2024-03-06T01:05:04;230.80;2252.80
55701;DHT22;41604;43.142;20.512;2024-03-06T01:07:30;231.10;2252.80
55701;DHT22;41604;43.142;20.512;2024-03-06T01:09:56;231.00;2252.80
55701;DHT22;41604;43.142;20.512;2024-03-06T01:12:23;230.80;2252.80
55701;DHT22;41604;43.142;20.512;2024-03-06T01:14:49;231.10;2252.80
55701;DHT22;41604;43.142;20.512;2024-03-06T01:17:15;231.10;2252.80
55701;DHT22;41604;43.142;20.512;2024-03-06T01:19:41;230.90;2252.80
55701;DHT22;41604;43.142;20.512;2024-03-06T01:22:09;230.90;2252.80
55701;DHT22;41604;43.142;20.512;2024-03-06T01:24:35;230.70;2252.80
55701;DHT22;41604;43.142;20.512;2024-03-06T01:27:01;230.80;2252.80
55701;DHT22;41604;43.142;20.512;2024-03-06T01:29:30;230.50;2252.80
55701;DHT22;41604;43.142;20.512;2024-03-06T01:31:56;230.40;2252.80
55701;DHT22;41604;43.142;20.512;2024-03-06T01:34:21;230.50;2252.80
55701;DHT22;41604;43.142;20.512;2024-03-06T01:36:51;230.40;2252.80
55701;DHT22;41604;43.142;20.512;2024-03-06T01:39:17;205.70;2252.80
55701;DHT22;41604;43.142;20.512;2024-03-06T01:41:50;230.50;2252.80
55701;DHT22;41604;43.142;20.512;2024-03-06T01:44:17;230.60;2252.80
55701;DHT22;41604;43.142;20.512;2024-03-06T01:46:43;230.90;2252.80
55701;DHT22;41604;43.142;20.512;2024-03-06T01:49:11;231.10;2252.80
55701;DHT22;41604;43.142;20.512;2024-03-06T01:51:39;231.00;2252.80
55701;DHT22;41604;43.142;20.512;2024-03-06T01:54:06;230.90;2252.80
55701;DHT22;41604;43.142;20.512;2024-03-06T01:56:34;230.70;2252.80
55701;DHT22;41604;43.142;20.512;2024-03-06T01:59:01;230.50;2252.80
55701;DHT22;41604;43.142;20.512;2024-03-06T02:01:28;230.40;2252.80
55701;DHT22;41604;43.142;20.512;2024-03-06T02:03:54;230.40;2252.80
55701;DHT22;41604;43.142;20.512;2024-03-06T02:06:21;230.40;2252.80
55701;DHT22;41604;43.142;20.512;2024-03-06T02:08:47;205.70;2252.80
55701;DHT22;41604;43.142;20.512;2024-03-06T02:11:13;205.70;2252.80
55701;DHT22;41604;43.142;20.512;2024-03-06T02:13:41;205.70;2252.80
55701;DHT22;41604;43.142;20.512;2024-03-06T02:16:07;205.70;2252.80
55701;DHT22;41604;43.142;20.512;2024-03-06T02:18:33;230.40;2252.80
55701;DHT22;41604;43.142;20.512;2024-03-06T02:20:59;205.70;2252.80
55701;DHT22;41604;43.142;20.512;2024-03-06T02:23:24;205.70;2252.80
55701;DHT22;41604;43.142;20.512;2024-03-06T02:25:50;205.70;2252.80
55701;DHT22;41604;43.142;20.512;2024-03-06T02:28:16;205.60;2252.80
55701;DHT22;41604;43.142;20.512;2024-03-06T02:30:43;205.60;2252.80
55701;DHT22;41604;43.142;20.512;2024-03-06T02:33:09;205.60;2252.80
55701;DHT22;41604;43.142;20.512;2024-03-06T02:35:35;205.50;2252.80
55701;DHT22;41604;43.142;20.512;2024-03-06T02:38:03;205.60;2252.80
55701;DHT22;41604;43.142;20.512;2024-03-06T02:40:30;205.60;2252.80
55701;DHT22;41604;43.142;20.512;2024-03-06T02:42:56;205.60;2252.80
55701;DHT22;41604;43.142;20.512;2024-03-06T02:45:22;205.70;2252.80
55701;DHT22;41604;43.142;20.512;2024-03-06T02:47:48;205.70;2252.80
55701;DHT22;41604;43.142;20.512;2024-03-06T02:50:14;205.70;2252.80
55701;DHT22;41604;43.142;20.512;2024-03-06T02:52:41;205.70;2252.80
55701;DHT22;41604;43.142;20.512;2024-03-06T02:55:07;230.40;2252.80
55701;DHT22;41604;43.142;20.512;2024-03-06T02:57:33;230.50;2252.80
55701;DHT22;41604;43.142;20.512;2024-03-06T02:59:59;230.50;2252.80
55701;DHT22;41604;43.142;20.512;2024-03-06T03:02:25;230.50;2252.80
55701;DHT22;41604;43.142;20.512;2024-03-06T03:04:51;230.50;2252.80
55701;DHT22;41604;43.142;20.512;2024-03-06T03:07:20;230.60;2252.80
55701;DHT22;41604;43.142;20.512;2024-03-06T03:09:46;230.60;2252.80
55701;DHT22;41604;43.142;20.512;2024-03-06T03:12:13;230.60;2252.80
55701;DHT22;41604;43.142;20.512;2024-03-06T03:14:42;230.60;2252.80
55701;DHT22;41604;43.142;20.512;2024-03-06T03:17:08;230.60;2252.80
55701;DHT22;41604;43.142;20.512;2024-03-06T03:19:34;230.60;2252.80
55701;DHT22;41604;43.142;20.512;2024-03-06T03:22:00;230.60;2252.80
55701;DHT22;41604;43.142;20.512;2024-03-06T03:24:30;230.60;2252.80
55701;DHT22;41604;43.142;20.512;2024-03-06T03:26:55;230.60;2252.80
55701;DHT22;41604;43.142;20.512;2024-03-06T03:29:21;230.70;2252.80
55701;DHT22;41604;43.142;20.512;2024-03-06T03:31:47;230.60;2252.80
55701;DHT22;41604;43.142;20.512;2024-03-06T03:34:13;230.60;2252.80
55701;DHT22;41604;43.142;20.512;2024-03-06T03:36:42;230.60;2252.80
55701;DHT22;41604;43.142;20.512;2024-03-06T03:39:11;230.60;2252.80
55701;DHT22;41604;43.142;20.512;2024-03-06T03:41:46;230.60;2252.80
55701;DHT22;41604;43.142;20.512;2024-03-06T03:44:13;230.70;2252.80
55701;DHT22;41604;43.142;20.512;2024-03-06T03:46:39;230.60;2252.80
55701;DHT22;41604;43.142;20.512;2024-03-06T03:49:05;230.60;2252.80
55701;DHT22;41604;43.142;20.512;2024-03-06T03:51:31;230.60;2252.80
55701;DHT22;41604;43.142;20.512;2024-03-06T03:53:57;230.60;2252.80
55701;DHT22;41604;43.142;20.512;2024-03-06T03:56:22;230.60;2252.80
55701;DHT22;41604;43.142;20.512;2024-03-06T03:58:48;230.60;2252.80
55701;DHT22;41604;43.142;20.512;2024-03-06T04:01:14;230.60;2252.80
55701;DHT22;41604;43.142;20.512;2024-03-06T04:03:40;230.60;2252.80
55701;DHT22;41604;43.142;20.512;2024-03-06T04:06:08;230.60;2252.80
55701;DHT22;41604;43.142;20.512;2024-03-06T04:08:34;230.50;2252.80
55701;DHT22;41604;43.142;20.512;2024-03-06T04:11:00;230.50;2252.80
55701;DHT22;41604;43.142;20.512;2024-03-06T04:13:26;230.50;2252.80
55701;DHT22;41604;43.142;20.512;2024-03-06T04:15:52;230.50;2252.80
55701;DHT22;41604;43.142;20.512;2024-03-06T04:18:17;230.50;2252.80
55701;DHT22;41604;43.142;20.512;2024-03-06T04:20:43;230.60;2252.80
55701;DHT22;41604;43.142;20.512;2024-03-06T04:23:09;230.60;2252.80
55701;DHT22;41604;43.142;20.512;2024-03-06T04:25:35;230.60;2252.80
55701;DHT22;41604;43.142;20.512;2024-03-06T04:28:00;230.60;2252.80
55701;DHT22;41604;43.142;20.512;2024-03-06T04:30:28;230.60;2252.80
55701;DHT22;41604;43.142;20.512;2024-03-06T04:32:53;230.60;2252.80
55701;DHT22;41604;43.142;20.512;2024-03-06T04:35:19;230.50;2252.80
55701;DHT22;41604;43.142;20.512;2024-03-06T04:37:45;230.50;2252.80
55701;DHT22;41604;43.142;20.512;2024-03-06T04:40:11;230.40;2252.80
55701;DHT22;41604;43.142;20.512;2024-03-06T04:42:37;230.50;2252.80
55701;DHT22;41604;43.142;20.512;2024-03-06T04:45:11;230.40;2252.80
55701;DHT22;41604;43.142;20.512;2024-03-06T04:47:38;230.40;2252.80
55701;DHT22;41604;43.142;20.512;2024-03-06T04:50:07;230.40;2252.80
55701;DHT22;41604;43.142;20.512;2024-03-06T04:52:34;230.40;2252.80
55701;DHT22;41604;43.142;20.512;2024-03-06T04:55:00;230.40;2252.80
55701;DHT22;41604;43.142;20.512;2024-03-06T04:57:26;230.50;2252.80
55701;DHT22;41604;43.142;20.512;2024-03-06T04:59:53;230.50;2252.80
55701;DHT22;41604;43.142;20.512;2024-03-06T05:02:19;230.50;2252.80
55701;DHT22;41604;43.142;20.512;2024-03-06T05:04:45;230.50;2252.80
55701;DHT22;41604;43.142;20.512;2024-03-06T05:07:12;230.50;2252.80
55701;DHT22;41604;43.142;20.512;2024-03-06T05:09:39;230.40;2252.80
55701;DHT22;41604;43.142;20.512;2024-03-06T05:12:07;230.40;2252.80
55701;DHT22;41604;43.142;20.512;2024-03-06T05:14:33;230.40;2252.80
55701;DHT22;41604;43.142;20.512;2024-03-06T05:16:59;230.40;2252.80
55701;DHT22;41604;43.142;20.512;2024-03-06T05:19:25;230.40;2252.80
55701;DHT22;41604;43.142;20.512;2024-03-06T05:22:00;230.50;2252.80
55701;DHT22;41604;43.142;20.512;2024-03-06T05:24:26;230.40;2252.80
55701;DHT22;41604;43.142;20.512;2024-03-06T05:26:52;230.40;2252.80
55701;DHT22;41604;43.142;20.512;2024-03-06T05:29:17;230.40;2252.80
55701;DHT22;41604;43.142;20.512;2024-03-06T05:31:43;230.50;2252.80
55701;DHT22;41604;43.142;20.512;2024-03-06T05:34:09;230.50;2252.80
55701;DHT22;41604;43.142;20.512;2024-03-06T05:36:35;230.40;2252.80
55701;DHT22;41604;43.142;20.512;2024-03-06T05:39:01;230.40;2252.80
55701;DHT22;41604;43.142;20.512;2024-03-06T05:41:28;230.50;2252.80
55701;DHT22;41604;43.142;20.512;2024-03-06T05:43:53;230.50;2252.80
55701;DHT22;41604;43.142;20.512;2024-03-06T05:46:19;230.50;2252.80
55701;DHT22;41604;43.142;20.512;2024-03-06T05:48:45;230.50;2252.80
55701;DHT22;41604;43.142;20.512;2024-03-06T05:51:10;230.80;2252.80
55701;DHT22;41604;43.142;20.512;2024-03-06T05:53:37;230.90;2252.80
55701;DHT22;41604;43.142;20.512;2024-03-06T05:56:06;230.80;2252.80
55701;DHT22;41604;43.142;20.512;2024-03-06T05:58:32;230.70;2252.80
55701;DHT22;41604;43.142;20.512;2024-03-06T06:01:00;230.70;2252.80
55701;DHT22;41604;43.142;20.512;2024-03-06T06:03:27;230.70;2252.80
55701;DHT22;41604;43.142;20.512;2024-03-06T06:05:54;230.70;2252.80
55701;DHT22;41604;43.142;20.512;2024-03-06T06:08:20;230.70;2252.80
55701;DHT22;41604;43.142;20.512;2024-03-06T06:10:45;230.70;2252.80
55701;DHT22;41604;43.142;20.512;2024-03-06T06:13:11;230.90;2252.80
55701;DHT22;41604;43.142;20.512;2024-03-06T06:15:37;231.00;2252.80
55701;DHT22;41604;43.142;20.512;2024-03-06T06:18:03;231.00;2252.80
55701;DHT22;41604;43.142;20.512;2024-03-06T06:20:29;230.90;2252.80
55701;DHT22;41604;43.142;20.512;2024-03-06T06:22:56;231.00;2252.80
55701;DHT22;41604;43.142;20.512;2024-03-06T06:25:22;231.10;2252.80
55701;DHT22;41604;43.142;20.512;2024-03-06T06:27:48;231.10;2252.80
55701;DHT22;41604;43.142;20.512;2024-03-06T06:30:15;231.10;2252.80
55701;DHT22;41604;43.142;20.512;2024-03-06T06:32:42;231.20;2252.80
55701;DHT22;41604;43.142;20.512;2024-03-06T06:35:09;231.30;2252.80
55701;DHT22;41604;43.142;20.512;2024-03-06T06:37:35;231.30;2252.80
55701;DHT22;41604;43.142;20.512;2024-03-06T06:40:02;231.30;2252.80
55701;DHT22;41604;43.142;20.512;2024-03-06T06:42:32;256.00;2252.80
55701;DHT22;41604;43.142;20.512;2024-03-06T06:45:01;256.10;2252.80
55701;DHT22;41604;43.142;20.512;2024-03-06T06:47:28;256.00;2252.80
55701;DHT22;41604;43.142;20.512;2024-03-06T06:49:54;256.00;2252.80
55701;DHT22;41604;43.142;20.512;2024-03-06T06:52:19;256.00;2252.80
55701;DHT22;41604;43.142;20.512;2024-03-06T06:54:46;256.20;2252.80
55701;DHT22;41604;43.142;20.512;2024-03-06T06:57:12;256.40;2252.80
55701;DHT22;41604;43.142;20.512;2024-03-06T06:59:40;256.40;2252.80
55701;DHT22;41604;43.142;20.512;2024-03-06T07:02:06;256.40;2252.80
55701;DHT22;41604;43.142;20.512;2024-03-06T07:04:31;256.40;2252.80
55701;DHT22;41604;43.142;20.512;2024-03-06T07:06:57;256.30;2252.80
55701;DHT22;41604;43.142;20.512;2024-03-06T07:09:23;256.20;2252.80
55701;DHT22;41604;43.142;20.512;2024-03-06T07:11:49;256.40;2252.80
55701;DHT22;41604;43.142;20.512;2024-03-06T07:14:15;256.40;2252.80
55701;DHT22;41604;43.142;20.512;2024-03-06T07:16:44;256.50;2252.80
55701;DHT22;41604;43.142;20.512;2024-03-06T07:19:11;256.80;2252.80
55701;DHT22;41604;43.142;20.512;2024-03-06T07:21:37;256.70;2252.80
55701;DHT22;41604;43.142;20.512;2024-03-06T07:24:03;256.70;2252.80
55701;DHT22;41604;43.142;20.512;2024-03-06T07:26:31;281.70;2278.40
55701;DHT22;41604;43.142;20.512;2024-03-06T07:28:58;281.80;2278.40
55701;DHT22;41604;43.142;20.512;2024-03-06T07:31:24;282.10;2278.40
55701;DHT22;41604;43.142;20.512;2024-03-06T07:33:50;282.30;2278.40
55701;DHT22;41604;43.142;20.512;2024-03-06T07:36:16;282.50;2278.40
55701;DHT22;41604;43.142;20.512;2024-03-06T07:38:44;282.50;2278.40
55701;DHT22;41604;43.142;20.512;2024-03-06T07:41:10;307.40;2304.00
55701;DHT22;41604;43.142;20.512;2024-03-06T07:43:37;307.30;2304.00
55701;DHT22;41604;43.142;20.512;2024-03-06T07:46:04;307.20;2304.00
55701;DHT22;41604;43.142;20.512;2024-03-06T07:48:37;307.50;2304.00
55701;DHT22;41604;43.142;20.512;2024-03-06T07:51:03;307.40;2304.00
55701;DHT22;41604;43.142;20.512;2024-03-06T07:53:28;282.50;2278.40
55701;DHT22;41604;43.142;20.512;2024-03-06T07:55:54;307.30;2304.00
55701;DHT22;41604;43.142;20.512;2024-03-06T07:58:20;307.60;2304.00
55701;DHT22;41604;43.142;20.512;2024-03-06T08:00:46;307.90;2304.00
55701;DHT22;41604;43.142;20.512;2024-03-06T08:03:12;307.80;2304.00
55701;DHT22;41604;43.142;20.512;2024-03-06T08:05:39;307.80;2304.00
55701;DHT22;41604;43.142;20.512;2024-03-06T08:08:05;307.90;2278.40
55701;DHT22;41604;43.142;20.512;2024-03-06T08:10:31;307.90;2304.00
55701;DHT22;41604;43.142;20.512;2024-03-06T08:12:57;307.80;2304.00
55701;DHT22;41604;43.142;20.512;2024-03-06T08:15:23;307.70;2304.00
55701;DHT22;41604;43.142;20.512;2024-03-06T08:17:49;307.80;2304.00
55701;DHT22;41604;43.142;20.512;2024-03-06T08:20:15;308.10;2304.00
55701;DHT22;41604;43.142;20.512;2024-03-06T08:22:42;332.80;2304.00
55701;DHT22;41604;43.142;20.512;2024-03-06T08:25:09;332.90;2304.00
55701;DHT22;41604;43.142;20.512;2024-03-06T08:27:36;332.90;2278.40
55701;DHT22;41604;43.142;20.512;2024-03-06T08:30:06;332.90;2278.40
55701;DHT22;41604;43.142;20.512;2024-03-06T08:32:33;333.00;2252.80
55701;DHT22;41604;43.142;20.512;2024-03-06T08:35:04;332.90;2252.80
55701;DHT22;41604;43.142;20.512;2024-03-06T08:37:35;332.90;2252.80
55701;DHT22;41604;43.142;20.512;2024-03-06T08:40:01;332.90;2252.80
55701;DHT22;41604;43.142;20.512;2024-03-06T08:42:28;333.10;2227.20
55701;DHT22;41604;43.142;20.512;2024-03-06T08:44:54;333.10;2227.20
55701;DHT22;41604;43.142;20.512;2024-03-06T08:47:19;333.30;2227.20
55701;DHT22;41604;43.142;20.512;2024-03-06T08:49:45;333.40;2227.20
55701;DHT22;41604;43.142;20.512;2024-03-06T08:52:12;333.60;2201.60
55701;DHT22;41604;43.142;20.512;2024-03-06T08:54:38;358.40;2201.60
55701;DHT22;41604;43.142;20.512;2024-03-06T08:57:07;358.60;2176.00
55701;DHT22;41604;43.142;20.512;2024-03-06T08:59:34;358.70;2150.40
55701;DHT22;41604;43.142;20.512;2024-03-06T10:01:05;358.90;2150.40
55701;DHT22;41604;43.142;20.512;2024-03-06T10:03:33;435.50;1766.40
55701;DHT22;41604;43.142;20.512;2024-03-06T10:06:00;435.40;1766.40
55701;DHT22;41604;43.142;20.512;2024-03-06T10:25:49;435.30;2201.60
55701;DHT22;41604;43.142;20.512;2024-03-06T16:17:52;410.00;1817.60
55701;DHT22;41604;43.142;20.512;2024-03-06T16:20:18;333.50;2227.20
55701;DHT22;41604;43.142;20.512;2024-03-06T16:22:45;333.30;2252.80
55701;DHT22;41604;43.142;20.512;2024-03-06T16:25:11;333.20;2278.40
55701;DHT22;41604;43.142;20.512;2024-03-06T16:27:37;333.10;2278.40
55701;DHT22;41604;43.142;20.512;2024-03-06T16:30:03;333.00;2304.00
55701;DHT22;41604;43.142;20.512;2024-03-06T16:32:29;332.90;2329.60
55701;DHT22;41604;43.142;20.512;2024-03-06T16:34:55;332.90;2329.60
55701;DHT22;41604;43.142;20.512;2024-03-06T16:37:21;332.90;2329.60
55701;DHT22;41604;43.142;20.512;2024-03-06T16:39:47;332.90;2329.60
55701;DHT22;41604;43.142;20.512;2024-03-06T16:42:13;332.90;2329.60
55701;DHT22;41604;43.142;20.512;2024-03-06T16:44:42;332.90;2329.60
55701;DHT22;41604;43.142;20.512;2024-03-06T16:47:07;333.00;2329.60
55701;DHT22;41604;43.142;20.512;2024-03-06T16:49:34;333.00;2329.60
55701;DHT22;41604;43.142;20.512;2024-03-06T16:52:00;333.00;2329.60
55701;DHT22;41604;43.142;20.512;2024-03-06T16:54:26;333.00;2329.60
55701;DHT22;41604;43.142;20.512;2024-03-06T16:56:52;333.00;2329.60
55701;DHT22;41604;43.142;20.512;2024-03-06T16:59:18;332.90;2329.60
55701;DHT22;41604;43.142;20.512;2024-03-06T17:01:44;332.90;2329.60
55701;DHT22;41604;43.142;20.512;2024-03-06T17:04:10;332.80;2329.60
55701;DHT22;41604;43.142;20.512;2024-03-06T17:06:35;308.10;2304.00
55701;DHT22;41604;43.142;20.512;2024-03-06T17:21:13;307.90;2304.00
55701;DHT22;41604;43.142;20.512;2024-03-06T17:23:39;307.50;2304.00
55701;DHT22;41604;43.142;20.512;2024-03-06T17:26:04;307.40;2304.00
55701;DHT22;41604;43.142;20.512;2024-03-06T17:28:30;307.50;2304.00
55701;DHT22;41604;43.142;20.512;2024-03-06T17:30:56;307.40;2304.00
55701;DHT22;41604;43.142;20.512;2024-03-06T17:33:22;307.40;2304.00
55701;DHT22;41604;43.142;20.512;2024-03-06T17:35:48;307.40;2304.00
55701;DHT22;41604;43.142;20.512;2024-03-06T17:38:15;307.30;2304.00
55701;DHT22;41604;43.142;20.512;2024-03-06T17:40:42;307.40;2304.00
55701;DHT22;41604;43.142;20.512;2024-03-06T17:43:12;307.50;2304.00
55701;DHT22;41604;43.142;20.512;2024-03-06T17:45:38;307.40;2304.00
55701;DHT22;41604;43.142;20.512;2024-03-06T17:48:04;307.40;2304.00
55701;DHT22;41604;43.142;20.512;2024-03-06T17:50:31;307.40;2304.00
55701;DHT22;41604;43.142;20.512;2024-03-06T17:52:59;307.40;2304.00
55701;DHT22;41604;43.142;20.512;2024-03-06T17:55:25;307.30;2304.00
55701;DHT22;41604;43.142;20.512;2024-03-06T17:57:54;307.40;2304.00
55701;DHT22;41604;43.142;20.512;2024-03-06T18:00:20;307.40;2304.00
55701;DHT22;41604;43.142;20.512;2024-03-06T18:02:45;307.40;2304.00
55701;DHT22;41604;43.142;20.512;2024-03-06T18:05:11;307.50;2304.00
55701;DHT22;41604;43.142;20.512;2024-03-06T18:07:41;307.40;2304.00
55701;DHT22;41604;43.142;20.512;2024-03-06T18:10:08;307.30;2304.00
55701;DHT22;41604;43.142;20.512;2024-03-06T18:12:33;307.30;2304.00
55701;DHT22;41604;43.142;20.512;2024-03-06T18:14:59;307.20;2304.00
55701;DHT22;41604;43.142;20.512;2024-03-06T18:17:26;307.30;2304.00
55701;DHT22;41604;43.142;20.512;2024-03-06T18:19:52;307.30;2304.00
55701;DHT22;41604;43.142;20.512;2024-03-06T18:22:18;307.30;2304.00
55701;DHT22;41604;43.142;20.512;2024-03-06T18:24:45;307.30;2304.00
55701;DHT22;41604;43.142;20.512;2024-03-06T18:27:11;307.20;2304.00
55701;DHT22;41604;43.142;20.512;2024-03-06T18:29:37;307.20;2304.00
55701;DHT22;41604;43.142;20.512;2024-03-06T18:32:03;282.50;2278.40
55701;DHT22;41604;43.142;20.512;2024-03-06T18:34:29;282.50;2278.40
55701;DHT22;41604;43.142;20.512;2024-03-06T18:36:59;282.50;2278.40
55701;DHT22;41604;43.142;20.512;2024-03-06T18:39:25;307.20;2304.00
55701;DHT22;41604;43.142;20.512;2024-03-06T18:41:50;282.50;2278.40
55701;DHT22;41604;43.142;20.512;2024-03-06T18:44:16;282.40;2278.40
55701;DHT22;41604;43.142;20.512;2024-03-06T18:46:43;282.40;2278.40
55701;DHT22;41604;43.142;20.512;2024-03-06T18:49:09;282.50;2278.40
55701;DHT22;41604;43.142;20.512;2024-03-06T18:51:37;282.50;2278.40
55701;DHT22;41604;43.142;20.512;2024-03-06T18:54:03;282.40;2278.40
55701;DHT22;41604;43.142;20.512;2024-03-06T18:56:30;282.40;2278.40
55701;DHT22;41604;43.142;20.512;2024-03-06T18:58:56;282.20;2278.40
55701;DHT22;41604;43.142;20.512;2024-03-06T19:01:22;282.20;2278.40
55701;DHT22;41604;43.142;20.512;2024-03-06T19:03:51;282.10;2278.40
55701;DHT22;41604;43.142;20.512;2024-03-06T19:08:43;281.80;2278.40
55701;DHT22;41604;43.142;20.512;2024-03-06T19:11:09;281.80;2278.40
55701;DHT22;41604;43.142;20.512;2024-03-06T19:13:35;281.80;2278.40
55701;DHT22;41604;43.142;20.512;2024-03-06T19:16:01;281.70;2278.40
55701;DHT22;41604;43.142;20.512;2024-03-06T19:18:27;281.80;2278.40
55701;DHT22;41604;43.142;20.512;2024-03-06T19:20:53;281.90;2278.40
55701;DHT22;41604;43.142;20.512;2024-03-06T19:23:19;281.90;2278.40
55701;DHT22;41604;43.142;20.512;2024-03-06T19:25:45;281.90;2278.40
55701;DHT22;41604;43.142;20.512;2024-03-06T19:28:11;281.90;2278.40
55701;DHT22;41604;43.142;20.512;2024-03-06T19:30:37;281.90;2278.40
55701;DHT22;41604;43.142;20.512;2024-03-06T19:33:03;282.00;2278.40
55701;DHT22;41604;43.142;20.512;2024-03-06T19:35:29;281.90;2278.40
55701;DHT22;41604;43.142;20.512;2024-03-06T19:37:57;281.80;2278.40
55701;DHT22;41604;43.142;20.512;2024-03-06T19:40:23;281.80;2278.40
55701;DHT22;41604;43.142;20.512;2024-03-06T19:42:49;281.70;2278.40
55701;DHT22;41604;43.142;20.512;2024-03-06T19:45:15;281.70;2278.40
55701;DHT22;41604;43.142;20.512;2024-03-06T19:47:40;281.80;2278.40
55701;DHT22;41604;43.142;20.512;2024-03-06T19:50:06;281.80;2278.40
55701;DHT22;41604;43.142;20.512;2024-03-06T19:52:33;281.80;2278.40
55701;DHT22;41604;43.142;20.512;2024-03-06T19:54:59;281.80;2278.40
55701;DHT22;41604;43.142;20.512;2024-03-06T19:57:25;281.80;2278.40
55701;DHT22;41604;43.142;20.512;2024-03-06T19:59:51;281.80;2278.40
55701;DHT22;41604;43.142;20.512;2024-03-06T20:02:16;281.90;2278.40
55701;DHT22;41604;43.142;20.512;2024-03-06T20:04:44;281.80;2278.40
55701;DHT22;41604;43.142;20.512;2024-03-06T20:07:11;281.80;2278.40
55701;DHT22;41604;43.142;20.512;2024-03-06T20:09:36;281.80;2278.40
55701;DHT22;41604;43.142;20.512;2024-03-06T20:12:02;281.70;2278.40
55701;DHT22;41604;43.142;20.512;2024-03-06T20:14:29;281.60;2278.40
55701;DHT22;41604;43.142;20.512;2024-03-06T20:16:58;256.80;2252.80
55701;DHT22;41604;43.142;20.512;2024-03-06T20:19:24;256.80;2252.80
55701;DHT22;41604;43.142;20.512;2024-03-06T20:21:50;281.60;2278.40
55701;DHT22;41604;43.142;20.512;2024-03-06T20:24:16;281.70;2278.40
55701;DHT22;41604;43.142;20.512;2024-03-06T20:26:42;281.80;2278.40
55701;DHT22;41604;43.142;20.512;2024-03-06T20:31:34;282.00;2278.40
55701;DHT22;41604;43.142;20.512;2024-03-06T20:34:00;281.80;2278.40
55701;DHT22;41604;43.142;20.512;2024-03-06T20:36:26;281.70;2278.40
55701;DHT22;41604;43.142;20.512;2024-03-06T20:38:51;281.70;2278.40
55701;DHT22;41604;43.142;20.512;2024-03-06T20:41:17;281.70;2278.40
55701;DHT22;41604;43.142;20.512;2024-03-06T20:43:44;281.80;2278.40
55701;DHT22;41604;43.142;20.512;2024-03-06T20:46:10;282.00;2278.40
55701;DHT22;41604;43.142;20.512;2024-03-06T20:48:36;282.10;2278.40
55701;DHT22;41604;43.142;20.512;2024-03-06T20:51:03;282.10;2278.40
55701;DHT22;41604;43.142;20.512;2024-03-06T20:53:29;281.90;2278.40
55701;DHT22;41604;43.142;20.512;2024-03-06T20:55:55;282.00;2278.40
55701;DHT22;41604;43.142;20.512;2024-03-06T20:58:21;281.80;2278.40
55701;DHT22;41604;43.142;20.512;2024-03-06T21:00:47;281.80;2278.40
55701;DHT22;41604;43.142;20.512;2024-03-06T21:03:15;281.70;2278.40
55701;DHT22;41604;43.142;20.512;2024-03-06T21:05:41;281.80;2278.40
55701;DHT22;41604;43.142;20.512;2024-03-06T21:08:07;281.90;2278.40
55701;DHT22;41604;43.142;20.512;2024-03-06T21:10:36;281.70;2278.40
55701;DHT22;41604;43.142;20.512;2024-03-06T21:13:02;281.70;2278.40
55701;DHT22;41604;43.142;20.512;2024-03-06T21:15:28;281.70;2278.40
55701;DHT22;41604;43.142;20.512;2024-03-06T21:17:54;281.70;2278.40
55701;DHT22;41604;43.142;20.512;2024-03-06T21:20:23;281.60;2278.40
55701;DHT22;41604;43.142;20.512;2024-03-06T21:22:48;281.70;2278.40
55701;DHT22;41604;43.142;20.512;2024-03-06T21:25:15;256.90;2252.80
55701;DHT22;41604;43.142;20.512;2024-03-06T21:54:31;282.00;2278.40
55701;DHT22;41604;43.142;20.512;2024-03-06T21:56:56;281.80;2278.40
55701;DHT22;41604;43.142;20.512;2024-03-06T21:59:22;281.70;2278.40
55701;DHT22;41604;43.142;20.512;2024-03-06T22:01:48;281.80;2278.40
55701;DHT22;41604;43.142;20.512;2024-03-06T22:04:14;281.70;2278.40
55701;DHT22;41604;43.142;20.512;2024-03-06T22:06:42;281.70;2278.40
55701;DHT22;41604;43.142;20.512;2024-03-06T22:09:08;281.80;2278.40
55701;DHT22;41604;43.142;20.512;2024-03-06T22:11:43;281.80;2278.40
55701;DHT22;41604;43.142;20.512;2024-03-06T22:16:39;256.90;2252.80
55701;DHT22;41604;43.142;20.512;2024-03-06T22:19:06;256.80;2252.80
55701;DHT22;41604;43.142;20.512;2024-03-06T22:21:32;256.60;2252.80
55701;DHT22;41604;43.142;20.512;2024-03-06T22:24:01;256.70;2252.80